Accueil
METAR-TAF:

METAR-TAF

Aéroports :

Locarno, Suisse

latitude: 46-09-55N, longitude: 8-52-40E, altitude: 198 m

Observation

Le bulletin a été fait il y a 19 minutes, à 22:50 UTC
Vent 5 kt de est, variant entre nord/nord-est et sud/sud-est
Température 7°C
Humidité 49%
Pression 1014 hPa
Visibilité 10 km ou plus
Nuages fragmentés à une hauteur de 8800 ft

METAR: LSZL 192250Z AUTO 09005KT 030V150 9999NDV BKN088 07/M03 Q1014 RMK

Heure: 00:09 (23:09 UTC)

Prévision

Le bulletin a été fait il y a 5 heures et 44 minutes, à 17:25 UTC
Prévision valable du 19 à 18 UTC au 20 à 03 UTC
Vent 5 kt de est
Visibilité 10 km ou plus
Quelques nuages à une hauteur de 12000 ft
Temporairement
du 19 à 18 UTC au 20 à 03 UTC
Visibilité 10 km ou plus
pas de nuages en-dessous de 1500 mètres et pas de cumulonimbus.

TAF: LSZL 191725Z 1918/2003 09005KT 9999 FEW120 TEMPO 1918/2003 CAVOK

Observations et prévisions météorologiques de plus de 4000 aéroports (messages METAR et TAF).

Les stations disponibles sont représentées par des disques jaunes et rouges sur la carte.

Passer la souris dessus pour voir le nom de la station.

Cliquer dessus pour voir les observations et prévisions météorologiques.

Pour changer de carte: cliquez sur les boutons verts avec une croix noire pour zoomer, sur le bouton vert avec un tiret pour effectuer un zoom arrière, ou sur les flèches vertes pour les cartes adjacentes.


METAR-TAF: